PMDY METAR and TAF weather

Enter ICAO airport designator
Station Type Date Time Source
PMDY METAR 2021/09/16 20:56 UTC NOAA

PMDY 162056Z AUTO 07014KT 5SM HZ SCT022 SCT050 29/23 A3021 RMK AO2 RAB11E23 SLP228 P0001 60001 T02890233 51004


Station Type Date Time Source
PMDY Decoded METAR 2021/09/16 20:56 UTC NOAA

Sand Island, Henderson Field Airport, HI, United States (PMDY) 28-13N 177-22W 6M
Sep 16, 2021 - 04:56 PM EDT / 2021.09.16 2056 UTC
Wind: from the ENE (070 degrees) at 16 MPH (14 KT):0
Visibility: 5 mile(s):0
Sky conditions: partly cloudy
Weather: haze
Precipitation last hour: 0.01 inches
Temperature: 84.0 F (28.9 C)
Dew Point: 73.9 F (23.3 C)
Relative Humidity: 71%
Pressure (altimeter): 30.21 in. Hg (1023 hPa)
Pressure tendency: 0.01 inches (0.4 hPa) higher than three hours ago
ob: PMDY 162056Z AUTO 07014KT 5SM HZ SCT022 SCT050 29/23 A3021 RMK AO2 RAB11E23 SLP228 P0001 60001 T02890233 51004
cycle: 21

Station Type Date Time Source
PMDY TAF 2021/09/16 18:22 UTC NOAA

TAF PMDY 161720Z 1618/1718 08012KT P6SM SCT025 SCT060

Example: see airport list